sensor_id;sensor_type;location;lat;lon;timestamp;P1;durP1;ratioP1;P2;durP2;ratioP2
70545;SDS011;58098;51.680;5.134;2022-07-19T00:01:53;11.13;;;5.33;;
70545;SDS011;58098;51.680;5.134;2022-07-19T00:04:19;11.00;;;5.30;;
70545;SDS011;58098;51.680;5.134;2022-07-19T00:06:44;10.00;;;5.50;;
70545;SDS011;58098;51.680;5.134;2022-07-19T00:09:09;11.67;;;5.17;;
70545;SDS011;58098;51.680;5.134;2022-07-19T00:11:34;12.30;;;5.35;;
70545;SDS011;58098;51.680;5.134;2022-07-19T00:13:59;13.70;;;5.83;;
70545;SDS011;58098;51.680;5.134;2022-07-19T00:16:24;9.20;;;5.40;;
70545;SDS011;58098;51.680;5.134;2022-07-19T00:18:50;13.93;;;4.80;;
70545;SDS011;58098;51.680;5.134;2022-07-19T00:21:15;12.40;;;5.77;;
70545;SDS011;58098;51.680;5.134;2022-07-19T00:23:40;11.90;;;5.53;;
70545;SDS011;58098;51.680;5.134;2022-07-19T00:26:05;9.90;;;5.70;;
70545;SDS011;58098;51.680;5.134;2022-07-19T00:28:30;8.87;;;5.10;;
70545;SDS011;58098;51.680;5.134;2022-07-19T00:30:56;10.87;;;5.60;;
70545;SDS011;58098;51.680;5.134;2022-07-19T00:33:21;8.87;;;5.33;;
70545;SDS011;58098;51.680;5.134;2022-07-19T00:35:46;11.43;;;5.33;;
70545;SDS011;58098;51.680;5.134;2022-07-19T00:38:12;11.50;;;5.50;;
70545;SDS011;58098;51.680;5.134;2022-07-19T00:40:38;13.47;;;6.07;;
70545;SDS011;58098;51.680;5.134;2022-07-19T00:43:04;11.30;;;6.00;;
70545;SDS011;58098;51.680;5.134;2022-07-19T00:45:29;8.48;;;5.82;;
70545;SDS011;58098;51.680;5.134;2022-07-19T00:47:54;9.33;;;5.70;;
70545;SDS011;58098;51.680;5.134;2022-07-19T00:50:20;8.40;;;6.03;;
70545;SDS011;58098;51.680;5.134;2022-07-19T00:52:46;8.60;;;5.87;;
70545;SDS011;58098;51.680;5.134;2022-07-19T00:55:13;13.52;;;5.47;;
70545;SDS011;58098;51.680;5.134;2022-07-19T00:57:38;10.80;;;5.70;;
70545;SDS011;58098;51.680;5.134;2022-07-19T01:00:04;8.73;;;5.97;;
70545;SDS011;58098;51.680;5.134;2022-07-19T01:02:30;9.25;;;6.10;;
70545;SDS011;58098;51.680;5.134;2022-07-19T01:04:56;10.00;;;6.22;;
70545;SDS011;58098;51.680;5.134;2022-07-19T01:07:21;9.87;;;6.43;;
70545;SDS011;58098;51.680;5.134;2022-07-19T01:09:47;9.77;;;5.73;;
70545;SDS011;58098;51.680;5.134;2022-07-19T01:12:12;9.07;;;5.70;;
70545;SDS011;58098;51.680;5.134;2022-07-19T01:14:37;11.90;;;6.50;;
70545;SDS011;58098;51.680;5.134;2022-07-19T01:17:03;8.13;;;6.10;;
70545;SDS011;58098;51.680;5.134;2022-07-19T01:19:29;10.68;;;6.03;;
70545;SDS011;58098;51.680;5.134;2022-07-19T01:21:54;10.53;;;6.30;;
70545;SDS011;58098;51.680;5.134;2022-07-19T01:24:19;7.93;;;5.43;;
70545;SDS011;58098;51.680;5.134;2022-07-19T01:26:44;9.60;;;5.97;;
70545;SDS011;58098;51.680;5.134;2022-07-19T01:29:14;6.93;;;6.07;;
70545;SDS011;58098;51.680;5.134;2022-07-19T01:31:39;10.40;;;5.68;;
70545;SDS011;58098;51.680;5.134;2022-07-19T01:34:05;9.80;;;5.60;;
70545;SDS011;58098;51.680;5.134;2022-07-19T01:36:30;8.47;;;5.43;;
70545;SDS011;58098;51.680;5.134;2022-07-19T01:38:55;11.27;;;5.90;;
70545;SDS011;58098;51.680;5.134;2022-07-19T01:41:20;8.43;;;5.80;;
70545;SDS011;58098;51.680;5.134;2022-07-19T01:43:45;8.47;;;5.50;;
70545;SDS011;58098;51.680;5.134;2022-07-19T01:46:11;9.30;;;6.17;;
70545;SDS011;58098;51.680;5.134;2022-07-19T01:48:36;8.37;;;5.67;;
70545;SDS011;58098;51.680;5.134;2022-07-19T01:51:01;9.90;;;6.40;;
70545;SDS011;58098;51.680;5.134;2022-07-19T01:53:26;9.90;;;5.80;;
70545;SDS011;58098;51.680;5.134;2022-07-19T01:55:51;8.97;;;6.00;;
70545;SDS011;58098;51.680;5.134;2022-07-19T01:58:17;10.43;;;6.53;;
70545;SDS011;58098;51.680;5.134;2022-07-19T02:00:42;10.57;;;6.33;;
70545;SDS011;58098;51.680;5.134;2022-07-19T02:03:07;9.83;;;6.30;;
70545;SDS011;58098;51.680;5.134;2022-07-19T02:05:33;7.73;;;6.03;;
70545;SDS011;58098;51.680;5.134;2022-07-19T02:07:58;14.83;;;6.40;;
70545;SDS011;58098;51.680;5.134;2022-07-19T02:10:24;11.80;;;6.80;;
70545;SDS011;58098;51.680;5.134;2022-07-19T02:12:50;12.15;;;6.95;;
70545;SDS011;58098;51.680;5.134;2022-07-19T02:15:15;11.40;;;6.40;;
70545;SDS011;58098;51.680;5.134;2022-07-19T02:17:40;10.60;;;6.87;;
70545;SDS011;58098;51.680;5.134;2022-07-19T02:20:05;9.77;;;6.70;;
70545;SDS011;58098;51.680;5.134;2022-07-19T02:22:31;13.57;;;7.20;;
70545;SDS011;58098;51.680;5.134;2022-07-19T02:24:56;11.43;;;7.60;;
70545;SDS011;58098;51.680;5.134;2022-07-19T02:27:21;10.87;;;7.50;;
70545;SDS011;58098;51.680;5.134;2022-07-19T02:29:47;18.50;;;7.70;;
70545;SDS011;58098;51.680;5.134;2022-07-19T02:32:13;16.20;;;8.20;;
70545;SDS011;58098;51.680;5.134;2022-07-19T02:34:39;15.47;;;8.40;;
70545;SDS011;58098;51.680;5.134;2022-07-19T02:37:04;13.40;;;7.73;;
70545;SDS011;58098;51.680;5.134;2022-07-19T02:39:29;12.13;;;7.87;;
70545;SDS011;58098;51.680;5.134;2022-07-19T02:41:54;10.80;;;8.20;;
70545;SDS011;58098;51.680;5.134;2022-07-19T02:44:19;9.93;;;7.53;;
70545;SDS011;58098;51.680;5.134;2022-07-19T02:46:45;13.00;;;8.97;;
70545;SDS011;58098;51.680;5.134;2022-07-19T02:49:10;14.00;;;8.60;;
70545;SDS011;58098;51.680;5.134;2022-07-19T02:51:35;10.73;;;8.03;;
70545;SDS011;58098;51.680;5.134;2022-07-19T02:54:00;11.80;;;8.10;;
70545;SDS011;58098;51.680;5.134;2022-07-19T02:56:25;11.07;;;8.10;;
70545;SDS011;58098;51.680;5.134;2022-07-19T02:58:51;10.03;;;7.77;;
70545;SDS011;58098;51.680;5.134;2022-07-19T03:01:16;11.63;;;8.43;;
70545;SDS011;58098;51.680;5.134;2022-07-19T03:03:42;13.20;;;8.50;;
70545;SDS011;58098;51.680;5.134;2022-07-19T03:06:10;11.70;;;7.80;;
70545;SDS011;58098;51.680;5.134;2022-07-19T03:08:36;11.00;;;7.95;;
70545;SDS011;58098;51.680;5.134;2022-07-19T03:11:01;12.07;;;8.00;;
70545;SDS011;58098;51.680;5.134;2022-07-19T03:13:26;14.37;;;8.43;;
70545;SDS011;58098;51.680;5.134;2022-07-19T03:15:52;16.93;;;8.13;;
70545;SDS011;58098;51.680;5.134;2022-07-19T03:18:17;12.23;;;8.57;;
70545;SDS011;58098;51.680;5.134;2022-07-19T03:20:42;12.13;;;8.87;;
70545;SDS011;58098;51.680;5.134;2022-07-19T03:23:07;14.17;;;8.47;;
70545;SDS011;58098;51.680;5.134;2022-07-19T03:25:32;14.00;;;8.20;;
70545;SDS011;58098;51.680;5.134;2022-07-19T03:27:58;16.40;;;9.07;;
70545;SDS011;58098;51.680;5.134;2022-07-19T03:30:23;17.07;;;9.13;;
70545;SDS011;58098;51.680;5.134;2022-07-19T03:32:48;12.43;;;8.77;;
70545;SDS011;58098;51.680;5.134;2022-07-19T03:35:13;13.43;;;8.40;;
70545;SDS011;58098;51.680;5.134;2022-07-19T03:37:38;13.47;;;8.67;;
70545;SDS011;58098;51.680;5.134;2022-07-19T03:40:04;12.60;;;8.90;;
70545;SDS011;58098;51.680;5.134;2022-07-19T03:42:29;11.60;;;8.90;;
70545;SDS011;58098;51.680;5.134;2022-07-19T03:44:55;12.37;;;8.77;;
70545;SDS011;58098;51.680;5.134;2022-07-19T03:47:20;13.53;;;8.30;;
70545;SDS011;58098;51.680;5.134;2022-07-19T03:49:45;13.83;;;8.63;;
70545;SDS011;58098;51.680;5.134;2022-07-19T03:52:10;15.00;;;8.80;;
70545;SDS011;58098;51.680;5.134;2022-07-19T03:54:36;15.57;;;9.10;;
70545;SDS011;58098;51.680;5.134;2022-07-19T03:57:01;12.23;;;8.77;;
70545;SDS011;58098;51.680;5.134;2022-07-19T03:59:26;15.00;;;8.63;;
70545;SDS011;58098;51.680;5.134;2022-07-19T04:01:52;12.33;;;8.80;;
70545;SDS011;58098;51.680;5.134;2022-07-19T04:04:17;12.07;;;8.20;;
70545;SDS011;58098;51.680;5.134;2022-07-19T04:06:42;10.00;;;8.50;;
70545;SDS011;58098;51.680;5.134;2022-07-19T04:09:08;11.60;;;9.17;;
70545;SDS011;58098;51.680;5.134;2022-07-19T04:11:33;12.13;;;8.67;;
70545;SDS011;58098;51.680;5.134;2022-07-19T04:13:58;15.33;;;8.60;;
70545;SDS011;58098;51.680;5.134;2022-07-19T04:16:23;13.23;;;8.20;;
70545;SDS011;58098;51.680;5.134;2022-07-19T04:18:48;12.40;;;8.23;;
70545;SDS011;58098;51.680;5.134;2022-07-19T04:21:14;12.17;;;8.17;;
70545;SDS011;58098;51.680;5.134;2022-07-19T04:23:39;11.87;;;8.20;;
70545;SDS011;58098;51.680;5.134;2022-07-19T04:26:04;15.57;;;8.17;;
70545;SDS011;58098;51.680;5.134;2022-07-19T04:28:29;11.23;;;8.53;;
70545;SDS011;58098;51.680;5.134;2022-07-19T04:30:54;14.60;;;9.47;;
70545;SDS011;58098;51.680;5.134;2022-07-19T04:33:19;13.37;;;9.10;;
70545;SDS011;58098;51.680;5.134;2022-07-19T04:35:45;14.97;;;9.53;;
70545;SDS011;58098;51.680;5.134;2022-07-19T04:38:10;11.37;;;9.67;;
70545;SDS011;58098;51.680;5.134;2022-07-19T04:40:36;16.27;;;10.15;;
70545;SDS011;58098;51.680;5.134;2022-07-19T04:43:01;16.00;;;9.93;;
70545;SDS011;58098;51.680;5.134;2022-07-19T04:45:27;14.03;;;10.37;;
70545;SDS011;58098;51.680;5.134;2022-07-19T04:47:52;14.18;;;9.68;;
70545;SDS011;58098;51.680;5.134;2022-07-19T04:50:18;18.17;;;10.20;;
70545;SDS011;58098;51.680;5.134;2022-07-19T04:52:43;15.97;;;9.47;;
70545;SDS011;58098;51.680;5.134;2022-07-19T04:55:08;13.53;;;9.93;;
70545;SDS011;58098;51.680;5.134;2022-07-19T04:57:34;14.45;;;9.55;;
70545;SDS011;58098;51.680;5.134;2022-07-19T04:59:59;10.87;;;9.30;;
70545;SDS011;58098;51.680;5.134;2022-07-19T05:02:24;13.10;;;9.83;;
70545;SDS011;58098;51.680;5.134;2022-07-19T05:04:49;15.33;;;10.13;;
70545;SDS011;58098;51.680;5.134;2022-07-19T05:07:15;16.97;;;9.90;;
70545;SDS011;58098;51.680;5.134;2022-07-19T05:09:40;16.13;;;10.57;;
70545;SDS011;58098;51.680;5.134;2022-07-19T05:12:05;17.60;;;10.80;;
70545;SDS011;58098;51.680;5.134;2022-07-19T05:14:32;13.27;;;9.20;;
70545;SDS011;58098;51.680;5.134;2022-07-19T05:16:57;15.13;;;10.65;;
70545;SDS011;58098;51.680;5.134;2022-07-19T05:19:23;17.00;;;11.60;;
70545;SDS011;58098;51.680;5.134;2022-07-19T05:21:48;22.47;;;14.70;;
70545;SDS011;58098;51.680;5.134;2022-07-19T05:24:13;23.10;;;15.87;;
70545;SDS011;58098;51.680;5.134;2022-07-19T05:26:38;22.87;;;15.63;;
70545;SDS011;58098;51.680;5.134;2022-07-19T05:29:04;21.50;;;16.33;;
70545;SDS011;58098;51.680;5.134;2022-07-19T05:31:29;22.30;;;16.53;;
70545;SDS011;58098;51.680;5.134;2022-07-19T05:33:54;24.77;;;17.00;;
70545;SDS011;58098;51.680;5.134;2022-07-19T05:36:19;21.43;;;17.00;;
70545;SDS011;58098;51.680;5.134;2022-07-19T05:38:45;27.77;;;17.10;;
70545;SDS011;58098;51.680;5.134;2022-07-19T05:41:10;21.83;;;14.63;;
70545;SDS011;58098;51.680;5.134;2022-07-19T05:43:36;23.10;;;15.90;;
70545;SDS011;58098;51.680;5.134;2022-07-19T05:46:02;28.30;;;18.75;;
70545;SDS011;58098;51.680;5.134;2022-07-19T05:48:27;18.50;;;12.60;;
70545;SDS011;58098;51.680;5.134;2022-07-19T05:50:53;24.13;;;16.87;;
70545;SDS011;58098;51.680;5.134;2022-07-19T05:53:18;27.37;;;16.80;;
70545;SDS011;58098;51.680;5.134;2022-07-19T05:55:44;25.40;;;18.48;;
70545;SDS011;58098;51.680;5.134;2022-07-19T05:58:09;28.03;;;16.93;;
70545;SDS011;58098;51.680;5.134;2022-07-19T06:00:34;26.13;;;16.97;;
70545;SDS011;58098;51.680;5.134;2022-07-19T06:02:59;21.67;;;15.97;;
70545;SDS011;58098;51.680;5.134;2022-07-19T06:05:25;25.40;;;16.23;;
70545;SDS011;58098;51.680;5.134;2022-07-19T06:07:50;25.40;;;18.63;;
70545;SDS011;58098;51.680;5.134;2022-07-19T06:10:15;29.17;;;20.00;;
70545;SDS011;58098;51.680;5.134;2022-07-19T06:12:40;27.87;;;18.30;;
70545;SDS011;58098;51.680;5.134;2022-07-19T06:15:06;31.50;;;19.00;;
70545;SDS011;58098;51.680;5.134;2022-07-19T06:17:31;23.50;;;16.73;;
70545;SDS011;58098;51.680;5.134;2022-07-19T06:19:56;24.33;;;16.90;;
70545;SDS011;58098;51.680;5.134;2022-07-19T06:22:21;24.03;;;18.00;;
70545;SDS011;58098;51.680;5.134;2022-07-19T06:24:46;23.15;;;14.60;;
70545;SDS011;58098;51.680;5.134;2022-07-19T06:27:12;30.13;;;14.83;;
70545;SDS011;58098;51.680;5.134;2022-07-19T06:29:37;21.63;;;13.73;;
70545;SDS011;58098;51.680;5.134;2022-07-19T06:32:02;23.60;;;13.43;;
70545;SDS011;58098;51.680;5.134;2022-07-19T06:34:27;22.77;;;13.07;;
70545;SDS011;58098;51.680;5.134;2022-07-19T06:36:53;23.90;;;12.77;;
70545;SDS011;58098;51.680;5.134;2022-07-19T06:39:18;15.80;;;10.93;;
70545;SDS011;58098;51.680;5.134;2022-07-19T06:41:43;19.67;;;10.40;;
70545;SDS011;58098;51.680;5.134;2022-07-19T06:44:08;20.47;;;12.57;;
70545;SDS011;58098;51.680;5.134;2022-07-19T06:46:33;17.83;;;9.50;;
70545;SDS011;58098;51.680;5.134;2022-07-19T06:48:59;20.50;;;9.33;;
70545;SDS011;58098;51.680;5.134;2022-07-19T06:51:24;21.30;;;10.47;;
70545;SDS011;58098;51.680;5.134;2022-07-19T06:53:49;21.10;;;10.37;;
70545;SDS011;58098;51.680;5.134;2022-07-19T06:56:14;17.30;;;9.77;;
70545;SDS011;58098;51.680;5.134;2022-07-19T06:58:39;14.67;;;9.03;;
70545;SDS011;58098;51.680;5.134;2022-07-19T07:01:05;17.90;;;9.43;;
70545;SDS011;58098;51.680;5.134;2022-07-19T07:03:30;20.87;;;8.10;;
70545;SDS011;58098;51.680;5.134;2022-07-19T07:05:55;16.27;;;9.13;;
70545;SDS011;58098;51.680;5.134;2022-07-19T07:08:20;15.67;;;8.53;;
70545;SDS011;58098;51.680;5.134;2022-07-19T07:10:45;17.07;;;7.70;;
70545;SDS011;58098;51.680;5.134;2022-07-19T07:13:11;13.20;;;7.80;;
70545;SDS011;58098;51.680;5.134;2022-07-19T07:15:36;13.40;;;7.57;;
70545;SDS011;58098;51.680;5.134;2022-07-19T07:18:03;16.85;;;8.05;;
70545;SDS011;58098;51.680;5.134;2022-07-19T07:20:28;17.93;;;6.67;;
70545;SDS011;58098;51.680;5.134;2022-07-19T07:22:53;14.60;;;7.43;;
70545;SDS011;58098;51.680;5.134;2022-07-19T07:25:18;14.90;;;6.87;;
70545;SDS011;58098;51.680;5.134;2022-07-19T07:27:44;15.57;;;7.07;;
70545;SDS011;58098;51.680;5.134;2022-07-19T07:30:09;21.63;;;7.87;;
70545;SDS011;58098;51.680;5.134;2022-07-19T07:32:35;13.38;;;6.88;;
70545;SDS011;58098;51.680;5.134;2022-07-19T07:35:00;13.97;;;8.17;;
70545;SDS011;58098;51.680;5.134;2022-07-19T07:37:25;19.77;;;7.90;;
70545;SDS011;58098;51.680;5.134;2022-07-19T07:39:51;14.97;;;6.63;;
70545;SDS011;58098;51.680;5.134;2022-07-19T07:42:16;14.57;;;6.50;;
70545;SDS011;58098;51.680;5.134;2022-07-19T07:44:41;13.37;;;6.80;;
70545;SDS011;58098;51.680;5.134;2022-07-19T07:47:07;16.53;;;5.40;;
70545;SDS011;58098;51.680;5.134;2022-07-19T07:49:33;12.67;;;6.07;;
70545;SDS011;58098;51.680;5.134;2022-07-19T07:51:58;17.27;;;6.38;;
70545;SDS011;58098;51.680;5.134;2022-07-19T07:54:24;12.47;;;5.33;;
70545;SDS011;58098;51.680;5.134;2022-07-19T07:56:49;13.97;;;5.83;;
70545;SDS011;58098;51.680;5.134;2022-07-19T07:59:14;8.90;;;5.40;;
70545;SDS011;58098;51.680;5.134;2022-07-19T08:01:39;10.93;;;5.53;;
70545;SDS011;58098;51.680;5.134;2022-07-19T08:04:04;7.50;;;4.57;;
70545;SDS011;58098;51.680;5.134;2022-07-19T08:06:30;8.67;;;5.20;;
70545;SDS011;58098;51.680;5.134;2022-07-19T08:08:55;10.40;;;4.70;;
70545;SDS011;58098;51.680;5.134;2022-07-19T08:11:20;13.43;;;5.30;;
70545;SDS011;58098;51.680;5.134;2022-07-19T08:13:46;13.40;;;5.00;;
70545;SDS011;58098;51.680;5.134;2022-07-19T08:16:11;8.63;;;4.53;;
70545;SDS011;58098;51.680;5.134;2022-07-19T08:18:36;10.43;;;4.20;;
70545;SDS011;58098;51.680;5.134;2022-07-19T08:21:01;13.77;;;4.57;;
70545;SDS011;58098;51.680;5.134;2022-07-19T08:23:26;14.20;;;4.30;;
70545;SDS011;58098;51.680;5.134;2022-07-19T08:25:51;10.70;;;4.33;;
70545;SDS011;58098;51.680;5.134;2022-07-19T08:28:17;9.97;;;4.33;;
70545;SDS011;58098;51.680;5.134;2022-07-19T08:30:42;11.57;;;4.30;;
70545;SDS011;58098;51.680;5.134;2022-07-19T08:33:07;10.70;;;3.90;;
70545;SDS011;58098;51.680;5.134;2022-07-19T08:35:35;9.48;;;3.75;;
70545;SDS011;58098;51.680;5.134;2022-07-19T08:38:00;10.23;;;3.90;;
70545;SDS011;58098;51.680;5.134;2022-07-19T08:40:26;12.47;;;3.57;;
70545;SDS011;58098;51.680;5.134;2022-07-19T08:42:51;7.87;;;3.53;;
70545;SDS011;58098;51.680;5.134;2022-07-19T08:45:16;9.53;;;3.47;;
70545;SDS011;58098;51.680;5.134;2022-07-19T08:47:41;8.80;;;3.37;;
70545;SDS011;58098;51.680;5.134;2022-07-19T08:50:08;11.13;;;3.83;;
70545;SDS011;58098;51.680;5.134;2022-07-19T08:52:34;6.45;;;3.78;;
70545;SDS011;58098;51.680;5.134;2022-07-19T08:55:00;14.23;;;4.03;;
70545;SDS011;58098;51.680;5.134;2022-07-19T08:57:25;6.87;;;3.70;;
70545;SDS011;58098;51.680;5.134;2022-07-19T09:00:09;9.02;;;3.83;;
70545;SDS011;58098;51.680;5.134;2022-07-19T09:02:35;11.87;;;3.40;;
70545;SDS011;58098;51.680;5.134;2022-07-19T09:05:04;9.10;;;4.37;;
70545;SDS011;58098;51.680;5.134;2022-07-19T09:07:37;10.73;;;3.83;;
70545;SDS011;58098;51.680;5.134;2022-07-19T09:18:05;9.53;;;3.50;;
70545;SDS011;58098;51.680;5.134;2022-07-19T09:20:30;8.02;;;3.58;;
70545;SDS011;58098;51.680;5.134;2022-07-19T09:22:55;9.50;;;3.80;;
70545;SDS011;58098;51.680;5.134;2022-07-19T09:25:31;10.63;;;3.73;;
70545;SDS011;58098;51.680;5.134;2022-07-19T09:27:57;14.75;;;3.85;;
70545;SDS011;58098;51.680;5.134;2022-07-19T09:30:32;9.93;;;3.80;;
70545;SDS011;58098;51.680;5.134;2022-07-19T09:33:16;7.13;;;3.50;;
70545;SDS011;58098;51.680;5.134;2022-07-19T09:35:43;5.07;;;2.88;;
70545;SDS011;58098;51.680;5.134;2022-07-19T09:38:22;14.07;;;3.83;;
70545;SDS011;58098;51.680;5.134;2022-07-19T09:40:49;11.82;;;3.40;;
70545;SDS011;58098;51.680;5.134;2022-07-19T09:43:14;6.43;;;3.25;;
70545;SDS011;58098;51.680;5.134;2022-07-19T09:45:40;12.03;;;3.47;;
70545;SDS011;58098;51.680;5.134;2022-07-19T09:48:05;6.93;;;3.60;;
70545;SDS011;58098;51.680;5.134;2022-07-19T09:50:30;9.47;;;3.50;;
70545;SDS011;58098;51.680;5.134;2022-07-19T09:53:01;9.20;;;3.20;;
70545;SDS011;58098;51.680;5.134;2022-07-19T09:55:26;12.13;;;4.07;;
70545;SDS011;58098;51.680;5.134;2022-07-19T09:57:52;8.18;;;3.40;;
70545;SDS011;58098;51.680;5.134;2022-07-19T10:00:18;13.97;;;3.57;;
70545;SDS011;58098;51.680;5.134;2022-07-19T10:02:44;11.98;;;3.67;;
70545;SDS011;58098;51.680;5.134;2022-07-19T10:05:11;11.05;;;3.78;;
70545;SDS011;58098;51.680;5.134;2022-07-19T10:07:37;10.63;;;3.50;;
70545;SDS011;58098;51.680;5.134;2022-07-19T10:10:07;9.32;;;3.22;;
70545;SDS011;58098;51.680;5.134;2022-07-19T10:12:32;9.83;;;3.30;;
70545;SDS011;58098;51.680;5.134;2022-07-19T10:14:58;9.57;;;3.23;;
70545;SDS011;58098;51.680;5.134;2022-07-19T10:17:32;5.93;;;3.23;;
70545;SDS011;58098;51.680;5.134;2022-07-19T10:19:59;12.60;;;3.60;;
70545;SDS011;58098;51.680;5.134;2022-07-19T10:22:25;7.43;;;3.55;;
70545;SDS011;58098;51.680;5.134;2022-07-19T10:24:54;7.95;;;3.10;;
70545;SDS011;58098;51.680;5.134;2022-07-19T10:29:48;8.43;;;3.35;;
70545;SDS011;58098;51.680;5.134;2022-07-19T10:32:13;6.63;;;3.33;;
70545;SDS011;58098;51.680;5.134;2022-07-19T10:34:40;8.55;;;3.30;;
70545;SDS011;58098;51.680;5.134;2022-07-19T10:37:05;9.02;;;3.45;;
70545;SDS011;58098;51.680;5.134;2022-07-19T10:39:37;10.10;;;3.60;;
70545;SDS011;58098;51.680;5.134;2022-07-19T10:42:19;4.68;;;3.20;;
70545;SDS011;58098;51.680;5.134;2022-07-19T10:50:00;7.78;;;3.90;;
70545;SDS011;58098;51.680;5.134;2022-07-19T10:57:37;6.77;;;3.60;;
70545;SDS011;58098;51.680;5.134;2022-07-19T11:00:15;7.63;;;3.67;;
70545;SDS011;58098;51.680;5.134;2022-07-19T11:02:40;8.20;;;3.97;;
70545;SDS011;58098;51.680;5.134;2022-07-19T11:05:05;5.70;;;3.20;;
70545;SDS011;58098;51.680;5.134;2022-07-19T11:07:31;6.47;;;3.47;;
70545;SDS011;58098;51.680;5.134;2022-07-19T11:09:57;6.17;;;3.37;;
70545;SDS011;58098;51.680;5.134;2022-07-19T11:12:29;5.10;;;3.10;;
70545;SDS011;58098;51.680;5.134;2022-07-19T11:14:55;9.25;;;3.40;;
70545;SDS011;58098;51.680;5.134;2022-07-19T11:17:21;12.75;;;3.38;;
70545;SDS011;58098;51.680;5.134;2022-07-19T11:22:41;11.15;;;3.45;;
70545;SDS011;58098;51.680;5.134;2022-07-19T11:25:07;5.27;;;3.23;;
70545;SDS011;58098;51.680;5.134;2022-07-19T11:27:33;6.50;;;3.05;;
70545;SDS011;58098;51.680;5.134;2022-07-19T11:29:59;5.17;;;3.20;;
70545;SDS011;58098;51.680;5.134;2022-07-19T11:32:25;10.85;;;3.53;;
70545;SDS011;58098;51.680;5.134;2022-07-19T11:34:55;7.60;;;3.72;;
70545;SDS011;58098;51.680;5.134;2022-07-19T11:37:25;5.75;;;2.95;;
70545;SDS011;58098;51.680;5.134;2022-07-19T11:39:50;6.20;;;3.35;;
70545;SDS011;58098;51.680;5.134;2022-07-19T11:42:26;8.15;;;3.25;;
70545;SDS011;58098;51.680;5.134;2022-07-19T11:44:51;6.70;;;3.30;;
70545;SDS011;58098;51.680;5.134;2022-07-19T11:47:17;9.55;;;3.60;;
70545;SDS011;58098;51.680;5.134;2022-07-19T11:49:42;7.03;;;3.80;;
70545;SDS011;58098;51.680;5.134;2022-07-19T11:52:07;7.80;;;3.30;;
70545;SDS011;58098;51.680;5.134;2022-07-19T11:54:33;10.83;;;3.60;;
70545;SDS011;58098;51.680;5.134;2022-07-19T11:56:58;5.33;;;3.03;;
70545;SDS011;58098;51.680;5.134;2022-07-19T11:59:23;8.77;;;3.10;;
70545;SDS011;58098;51.680;5.134;2022-07-19T12:01:54;6.80;;;3.40;;
70545;SDS011;58098;51.680;5.134;2022-07-19T12:04:19;6.57;;;3.47;;
70545;SDS011;58098;51.680;5.134;2022-07-19T12:06:47;9.05;;;3.03;;
70545;SDS011;58098;51.680;5.134;2022-07-19T12:11:39;8.50;;;3.20;;
70545;SDS011;58098;51.680;5.134;2022-07-19T12:16:42;8.70;;;3.15;;
70545;SDS011;58098;51.680;5.134;2022-07-19T12:19:09;7.53;;;3.23;;
70545;SDS011;58098;51.680;5.134;2022-07-19T12:24:08;7.85;;;3.33;;
70545;SDS011;58098;51.680;5.134;2022-07-19T12:26:34;7.80;;;3.03;;
70545;SDS011;58098;51.680;5.134;2022-07-19T12:28:59;9.07;;;3.23;;
70545;SDS011;58098;51.680;5.134;2022-07-19T12:31:24;7.20;;;3.07;;
70545;SDS011;58098;51.680;5.134;2022-07-19T12:34:00;7.13;;;3.20;;
70545;SDS011;58098;51.680;5.134;2022-07-19T12:36:32;7.88;;;3.70;;
70545;SDS011;58098;51.680;5.134;2022-07-19T12:38:58;6.80;;;3.13;;
70545;SDS011;58098;51.680;5.134;2022-07-19T12:41:23;5.97;;;3.00;;
70545;SDS011;58098;51.680;5.134;2022-07-19T12:43:48;6.78;;;2.97;;
70545;SDS011;58098;51.680;5.134;2022-07-19T12:46:13;11.37;;;3.00;;
70545;SDS011;58098;51.680;5.134;2022-07-19T12:48:38;10.35;;;3.33;;
70545;SDS011;58098;51.680;5.134;2022-07-19T12:51:03;7.13;;;3.17;;
70545;SDS011;58098;51.680;5.134;2022-07-19T12:53:29;6.63;;;3.03;;
70545;SDS011;58098;51.680;5.134;2022-07-19T12:55:54;8.07;;;2.90;;
70545;SDS011;58098;51.680;5.134;2022-07-19T12:58:19;6.60;;;3.43;;
70545;SDS011;58098;51.680;5.134;2022-07-19T13:01:03;6.22;;;3.22;;
70545;SDS011;58098;51.680;5.134;2022-07-19T13:03:31;9.52;;;3.63;;
70545;SDS011;58098;51.680;5.134;2022-07-19T13:05:56;4.53;;;3.37;;
70545;SDS011;58098;51.680;5.134;2022-07-19T13:08:24;5.35;;;3.28;;
70545;SDS011;58098;51.680;5.134;2022-07-19T13:10:50;6.80;;;3.50;;
70545;SDS011;58098;51.680;5.134;2022-07-19T13:13:16;9.55;;;2.97;;
70545;SDS011;58098;51.680;5.134;2022-07-19T13:15:41;7.30;;;3.00;;
70545;SDS011;58098;51.680;5.134;2022-07-19T13:18:06;6.53;;;3.10;;
70545;SDS011;58098;51.680;5.134;2022-07-19T13:20:31;7.40;;;3.23;;
70545;SDS011;58098;51.680;5.134;2022-07-19T13:22:57;5.93;;;3.27;;
70545;SDS011;58098;51.680;5.134;2022-07-19T13:25:22;7.57;;;3.50;;
70545;SDS011;58098;51.680;5.134;2022-07-19T13:27:47;6.37;;;3.40;;
70545;SDS011;58098;51.680;5.134;2022-07-19T13:30:13;8.68;;;3.13;;
70545;SDS011;58098;51.680;5.134;2022-07-19T13:32:39;9.43;;;2.97;;
70545;SDS011;58098;51.680;5.134;2022-07-19T13:35:04;8.43;;;3.57;;
70545;SDS011;58098;51.680;5.134;2022-07-19T13:37:29;5.10;;;3.03;;
70545;SDS011;58098;51.680;5.134;2022-07-19T13:39:55;7.07;;;3.20;;
70545;SDS011;58098;51.680;5.134;2022-07-19T13:42:20;7.57;;;3.20;;
70545;SDS011;58098;51.680;5.134;2022-07-19T13:44:45;7.90;;;3.17;;
70545;SDS011;58098;51.680;5.134;2022-07-19T13:47:15;9.00;;;3.00;;
70545;SDS011;58098;51.680;5.134;2022-07-19T13:49:41;8.50;;;3.23;;
70545;SDS011;58098;51.680;5.134;2022-07-19T13:52:06;11.00;;;3.40;;
70545;SDS011;58098;51.680;5.134;2022-07-19T13:54:31;4.93;;;3.50;;
70545;SDS011;58098;51.680;5.134;2022-07-19T13:56:56;5.20;;;3.00;;
70545;SDS011;58098;51.680;5.134;2022-07-19T13:59:21;7.47;;;3.03;;
70545;SDS011;58098;51.680;5.134;2022-07-19T14:01:47;5.63;;;3.15;;
70545;SDS011;58098;51.680;5.134;2022-07-19T14:04:12;7.25;;;3.30;;
70545;SDS011;58098;51.680;5.134;2022-07-19T14:06:37;7.57;;;3.50;;
70545;SDS011;58098;51.680;5.134;2022-07-19T14:09:02;8.23;;;3.33;;
70545;SDS011;58098;51.680;5.134;2022-07-19T14:11:28;9.13;;;3.40;;
70545;SDS011;58098;51.680;5.134;2022-07-19T14:13:53;10.93;;;3.53;;
70545;SDS011;58098;51.680;5.134;2022-07-19T14:16:18;8.47;;;3.57;;
70545;SDS011;58098;51.680;5.134;2022-07-19T14:18:43;12.90;;;4.10;;
70545;SDS011;58098;51.680;5.134;2022-07-19T14:21:09;9.80;;;3.77;;
70545;SDS011;58098;51.680;5.134;2022-07-19T14:23:34;9.47;;;3.93;;
70545;SDS011;58098;51.680;5.134;2022-07-19T14:25:59;8.53;;;4.13;;
70545;SDS011;58098;51.680;5.134;2022-07-19T14:28:24;9.90;;;4.30;;
70545;SDS011;58098;51.680;5.134;2022-07-19T14:30:50;11.60;;;4.27;;
70545;SDS011;58098;51.680;5.134;2022-07-19T14:33:15;11.63;;;3.73;;
70545;SDS011;58098;51.680;5.134;2022-07-19T14:35:41;6.38;;;3.65;;
70545;SDS011;58098;51.680;5.134;2022-07-19T14:38:06;10.43;;;4.10;;
70545;SDS011;58098;51.680;5.134;2022-07-19T14:40:31;6.10;;;3.83;;
70545;SDS011;58098;51.680;5.134;2022-07-19T14:42:56;11.10;;;3.70;;
70545;SDS011;58098;51.680;5.134;2022-07-19T14:45:22;7.83;;;4.10;;
70545;SDS011;58098;51.680;5.134;2022-07-19T14:47:47;8.27;;;4.00;;
70545;SDS011;58098;51.680;5.134;2022-07-19T14:50:12;7.60;;;4.03;;
70545;SDS011;58098;51.680;5.134;2022-07-19T14:52:38;10.17;;;3.60;;
70545;SDS011;58098;51.680;5.134;2022-07-19T14:55:05;8.95;;;4.05;;
70545;SDS011;58098;51.680;5.134;2022-07-19T14:57:31;8.98;;;3.88;;
70545;SDS011;58098;51.680;5.134;2022-07-19T14:59:56;9.37;;;4.13;;
70545;SDS011;58098;51.680;5.134;2022-07-19T15:02:21;9.13;;;4.10;;